createdAt,value
2023-01-07T00:01:11.165Z,7.50
2023-01-07T00:11:20.327Z,6.50
2023-01-07T00:21:29.178Z,7.20
2023-01-07T00:31:39.527Z,6.20
2023-01-07T00:42:01.951Z,6.60
2023-01-07T00:52:09.331Z,6.10
2023-01-07T01:02:16.508Z,6.50
2023-01-07T01:12:23.587Z,9.20
2023-01-07T01:22:31.330Z,10.00
2023-01-07T01:32:38.406Z,10.20
2023-01-07T01:42:45.447Z,10.70
2023-01-07T01:52:54.000Z,8.60
2023-01-07T02:03:03.020Z,9.00
2023-01-07T02:13:17.120Z,9.90
2023-01-07T02:23:55.011Z,9.20
2023-01-07T02:34:04.721Z,9.30
2023-01-07T02:44:22.955Z,10.90
2023-01-07T02:54:32.204Z,10.20
2023-01-07T03:04:42.420Z,9.00
2023-01-07T03:14:50.917Z,9.00
2023-01-07T03:25:01.463Z,9.80
2023-01-07T03:35:08.291Z,10.60
2023-01-07T03:45:15.904Z,12.10
2023-01-07T03:55:23.151Z,15.90
2023-01-07T04:05:30.537Z,20.10
2023-01-07T04:15:37.521Z,23.70
2023-01-07T04:25:47.485Z,20.00
2023-01-07T04:35:54.585Z,18.70
2023-01-07T04:46:01.703Z,20.00
2023-01-07T04:56:10.266Z,17.60
2023-01-07T05:06:16.519Z,18.30
2023-01-07T05:16:23.741Z,20.30
2023-01-07T05:26:31.762Z,15.70
2023-01-07T05:36:38.807Z,21.20
2023-01-07T05:46:46.728Z,22.60
2023-01-07T05:56:53.833Z,21.00
2023-01-07T06:07:00.903Z,20.50
2023-01-07T06:17:08.197Z,17.90
2023-01-07T06:27:15.540Z,17.00
2023-01-07T06:37:22.557Z,15.70
2023-01-07T06:47:29.485Z,13.70
2023-01-07T06:57:37.002Z,14.00
2023-01-07T07:17:50.776Z,17.10
2023-01-07T07:27:57.745Z,18.80
2023-01-07T07:38:05.185Z,25.20
2023-01-07T07:48:14.075Z,29.20
2023-01-07T07:58:21.012Z,28.60
2023-01-07T08:08:28.191Z,29.30
2023-01-07T08:18:34.633Z,26.10
2023-01-07T08:28:41.919Z,29.40
2023-01-07T08:38:51.495Z,29.20
2023-01-07T08:59:04.622Z,29.40
2023-01-07T09:09:14.671Z,28.30
2023-01-07T09:19:21.836Z,29.00
2023-01-07T09:29:28.879Z,31.90
2023-01-07T09:39:36.004Z,22.00
2023-01-07T09:49:46.754Z,19.60
2023-01-07T09:59:53.772Z,18.90
2023-01-07T10:10:02.622Z,21.20
2023-01-07T10:20:15.356Z,17.70
2023-01-07T10:30:23.272Z,13.80
2023-01-07T10:40:30.710Z,15.80
2023-01-07T10:50:49.385Z,16.20
2023-01-07T11:00:56.649Z,14.90
2023-01-07T11:11:04.854Z,13.40
2023-01-07T11:21:42.639Z,11.70
2023-01-07T11:31:47.346Z,11.70
2023-01-07T11:41:55.754Z,11.60
2023-01-07T11:52:03.016Z,11.60
2023-01-07T12:02:15.201Z,12.80
2023-01-07T12:12:34.923Z,10.20
2023-01-07T12:22:42.353Z,7.50
2023-01-07T12:32:48.284Z,10.80
2023-01-07T12:42:57.142Z,8.40
2023-01-07T12:53:04.610Z,8.60
2023-01-07T13:03:11.737Z,8.20
2023-01-07T13:13:16.979Z,8.50
2023-01-07T13:23:26.218Z,8.20
2023-01-07T13:33:43.998Z,11.80
2023-01-07T13:44:06.540Z,10.70
2023-01-07T13:54:14.189Z,13.40
2023-01-07T14:04:37.456Z,18.10
2023-01-07T14:14:43.314Z,20.50
2023-01-07T14:25:01.694Z,28.80
2023-01-07T14:35:23.331Z,26.80
2023-01-07T14:45:52.573Z,26.80
2023-01-07T14:56:14.014Z,30.40
2023-01-07T15:06:30.191Z,35.60
2023-01-07T15:16:39.213Z,38.40
2023-01-07T15:26:45.191Z,46.30
2023-01-07T15:36:53.905Z,46.60
2023-01-07T15:47:01.566Z,52.80
2023-01-07T15:57:16.105Z,57.80
2023-01-07T16:07:22.723Z,62.80
2023-01-07T16:17:30.051Z,76.50
2023-01-07T16:27:39.691Z,85.10
2023-01-07T16:37:48.303Z,73.30
2023-01-07T16:48:21.784Z,64.40
2023-01-07T16:58:30.555Z,65.40
2023-01-07T17:08:40.410Z,69.60
2023-01-07T17:18:47.920Z,70.10
2023-01-07T17:28:57.735Z,65.10
2023-01-07T17:39:05.157Z,60.20
2023-01-07T17:49:12.464Z,85.90
2023-01-07T17:59:21.883Z,82.20
2023-01-07T18:09:29.192Z,86.60
2023-01-07T18:19:36.827Z,73.70
2023-01-07T18:29:44.111Z,72.40
2023-01-07T18:39:51.238Z,69.10
2023-01-07T18:49:59.108Z,60.80
2023-01-07T19:00:07.971Z,53.50
2023-01-07T19:10:15.077Z,53.70
2023-01-07T19:20:22.420Z,53.60
2023-01-07T19:30:29.673Z,58.40
2023-01-07T19:40:37.052Z,66.80
2023-01-07T19:50:46.357Z,68.10
2023-01-07T20:00:53.685Z,68.70
2023-01-07T20:11:03.580Z,76.10
2023-01-07T20:21:10.972Z,76.10
2023-01-07T20:31:21.248Z,79.50
2023-01-07T20:41:29.271Z,81.10
2023-01-07T20:51:37.162Z,71.20
2023-01-07T21:01:44.522Z,64.00
2023-01-07T21:11:52.075Z,69.80
2023-01-07T21:22:00.616Z,62.80
2023-01-07T21:32:05.397Z,54.90
2023-01-07T21:42:12.639Z,56.30
2023-01-07T21:52:20.762Z,57.80
2023-01-07T22:02:28.119Z,58.50
2023-01-07T22:12:35.937Z,52.00
2023-01-07T22:22:44.359Z,48.00
2023-01-07T22:32:51.421Z,42.20
2023-01-07T22:43:04.200Z,41.70
2023-01-07T22:53:11.081Z,40.50
2023-01-07T23:03:18.910Z,37.90
2023-01-07T23:13:26.897Z,39.70
2023-01-07T23:23:33.021Z,32.70
2023-01-07T23:33:40.060Z,35.90
2023-01-07T23:43:47.336Z,45.00
2023-01-07T23:53:54.388Z,46.30
